Main page
METAR-TAF:

METAR-TAF

Airports :

Hévíz–Balaton Airport

Hévíz, Hungary

latitude: 46-41-11N, longitude: 017-09-33E, elevation: 124 m

Current weather observation

The report was made 47 minutes ago, at 08:15 UTC
Wind 4 kt from the West/Northwest
Temperature 2°C
Humidity 87%
Pressure 1027 hPa
Visibility 10 km or more
Few clouds at a height of 4000 ft
Scattered clouds at a height of 5300 ft
Broken clouds at a height of 8300 ft

METAR: LHSM 180815Z 30004KT 9999 FEW040 SCT053 BKN083 02/00 Q1027 NOSIG

Time: 10:02 (09:02 UTC)

Forecast

The report was made 47 minutes ago, at 08:15 UTC
Forecast valid from 18 at 09 UTC to 18 at 18 UTC
Wind 5 kt from the North/Northwest
Visibility 10 km or more
Scattered clouds at a height of 4000 ft
Broken clouds at a height of 6000 ft
Temporary
from 18 at 12 UTC to 18 at 18 UTC
Broken clouds at a height of 3000 ft
light snow, light rain, snow

TAF: LHSM 180815Z 1809/1818 34005KT 9999 SCT040 BKN060 TEMPO 1812/1818 -SN -RASN BKN030

Weather observations and forecasts of more than 4000 airports (METAR and TAF reports).

The available stations are represented by yellow and red dots on the map.

Hover mouse over dot to see the name of the station.

Then click to see weather observations and forecasts.

To change the map : click on the green buttons with a black cross to zoom in, on the green button with a dash to zoom out, or on the green arrows for adjacent maps.


METAR-TAF: